^^
Datos históricos de la estación: Murcia-Puente Tocinos
Diario Informe para Marzo 18, 2019 Unidades:  Métrico    Ingés   Ambas
Diario Semanal Mensual Anual
  Máxima: Mínima: Promedio:
Temperatura: 33.5 °C 22.7 °C 27.1 °C
Punto de rocio: 20 °C 11.8 °C 17.5 °C
Humedad: 82% 27% 59%
Velocidad viento: 16.1km/h 0km/h 6.8km/h
Racha viento: 27.8km/h - -
Viento- - ESE
Presión: 1013.5 hPa 1010.8 hPa -
Precipitación: 0.0 mm    
 
 
Tabla de datos para Marzo 18, 2019
Hora Temperatura Punto de rocio Presión Viento Velocidad viento Racha viento Humedad Intensidad lluvia(por hora) Nubes
00:04 24.8 °C 19.3 °C 1011.8 hPa NE 11.9 km/h 19.3 km/h 71.4% 0.0 mm
00:09 24.9 °C 19.3 °C 1011.8 hPa NE 10.6 km/h 14.5 km/h 71% 0.0 mm
00:14 24.9 °C 19.3 °C 1011.8 hPa NE 7.6 km/h 11.3 km/h 71% 0.0 mm
00:19 24.9 °C 19.3 °C 1012.1 hPa ENE 7.1 km/h 11.3 km/h 71% 0.0 mm
00:24 24.9 °C 19.3 °C 1012.1 hPa ENE 5.8 km/h 8 km/h 71% 0.0 mm
00:29 24.9 °C 19.2 °C 1012.1 hPa ESE 4 km/h 7.4 km/h 70.7% 0.0 mm
00:34 24.9 °C 19.1 °C 1012.1 hPa Calm   8 km/h 70% 0.0 mm
00:39 25 °C 19.2 °C 1012.0 hPa NNE 0.8 km/h 7.6 km/h 70.3% 0.0 mm
00:44 24.9 °C 19.3 °C 1012.0 hPa North 2.9 km/h 8 km/h 71% 0.0 mm
00:49 24.9 °C 19.2 °C 1012.4 hPa NNE 3.2 km/h 8 km/h 71% 0.0 mm
00:54 24.8 °C 19.3 °C 1012.4 hPa North 3.9 km/h 8.4 km/h 71.4% 0.0 mm
00:59 24.7 °C 19.3 °C 1012.4 hPa North 3.9 km/h 8.4 km/h 72% 0.0 mm
01:04 24.5 °C 19.3 °C 1012.5 hPa North 3.9 km/h 8 km/h 72.9% 0.0 mm
01:09 24.4 °C 19.2 °C 1012.5 hPa NE 3.7 km/h 8 km/h 73% 0.0 mm
01:14 24.3 °C 19.3 °C 1012.5 hPa NNO 3.2 km/h 4.8 km/h 73.4% 0.0 mm
01:19 24.3 °C 19.4 °C 1012.6 hPa ONO 2.3 km/h   74% 0.0 mm
01:24 24.3 °C 19.4 °C 1012.6 hPa Calm   2.9 km/h 74% 0.0 mm
01:29 24.3 °C 19.4 °C 1012.6 hPa NO 0.7 km/h 7.4 km/h 74% 0.0 mm
01:34 24.3 °C 19.4 °C 1012.6 hPa NO 2.2 km/h 8 km/h 74% 0.0 mm
01:39 24.3 °C 19.4 °C 1012.5 hPa NO 2.4 km/h 7.4 km/h 74% 0.0 mm
01:44 24.3 °C 19.4 °C 1012.5 hPa NO 2.9 km/h 8 km/h 74% 0.0 mm
01:49 24.3 °C 19.4 °C 1012.5 hPa NO 2.7 km/h 4.8 km/h 74% 0.0 mm
01:54 24.3 °C 19.4 °C 1012.4 hPa NNO 2.2 km/h 4.8 km/h 74% 0.0 mm
01:59 24.3 °C 19.4 °C 1012.4 hPa North 1.5 km/h 5.6 km/h 74% 0.0 mm
02:04 24.3 °C 19.4 °C 1012.5 hPa Calm   8.4 km/h 74% 0.0 mm
02:09 24.3 °C 19.5 °C 1012.5 hPa NO 1.2 km/h 8 km/h 74.6% 0.0 mm
02:14 24.2 °C 19.5 °C 1012.5 hPa NO 3.9 km/h 8 km/h 75% 0.0 mm
02:19 24.2 °C 19.5 °C 1012.5 hPa NNO 2.7 km/h 7.4 km/h 75% 0.0 mm
02:24 24.2 °C 19.5 °C 1012.4 hPa Calm   8 km/h 75% 0.0 mm
02:29 24.1 °C 19.4 °C 1012.4 hPa NE 0.8 km/h 8 km/h 75% 0.0 mm
02:34 24.1 °C 19.4 °C 1012.4 hPa NE 2.9 km/h 8 km/h 75% 0.0 mm
02:39 24.1 °C 19.4 °C 1012.3 hPa NE 3.6 km/h 9.5 km/h 75% 0.0 mm
02:44 24 °C 19.3 °C 1012.3 hPa NE 5 km/h 9.7 km/h 75% 0.0 mm
02:49 23.8 °C 19.3 °C 1012.3 hPa NE 5 km/h 8.4 km/h 75.7% 0.0 mm
02:54 23.7 °C 19.3 °C 1012.2 hPa NE 5 km/h 8 km/h 76% 0.0 mm
02:59 23.7 °C 19.3 °C 1012.2 hPa NE 4.9 km/h 8.4 km/h 76.5% 0.0 mm
03:04 23.6 °C 19.3 °C 1012.2 hPa NE 4.7 km/h 8.4 km/h 77% 0.0 mm
03:09 23.6 °C 19.3 °C 1012.2 hPa NE 5 km/h 9.5 km/h 77% 0.0 mm
03:14 23.5 °C 19.3 °C 1012.2 hPa NE 5.8 km/h 9.7 km/h 77.2% 0.0 mm
03:19 23.4 °C 19.3 °C 1012.2 hPa NE 5.8 km/h 9.7 km/h 77.8% 0.0 mm
03:24 23.3 °C 19.2 °C 1012.2 hPa NNE 5.8 km/h 10 km/h 78% 0.0 mm
03:29 23.2 °C 19.2 °C 1012.2 hPa NE 5.5 km/h 9.7 km/h 78% 0.0 mm
03:34 23.1 °C 19.1 °C 1012.2 hPa NE 5 km/h 9.5 km/h 78.2% 0.0 mm
03:39 23.1 °C 19.2 °C 1012.0 hPa NE 5.2 km/h 9.7 km/h 78.8% 0.0 mm
03:44 23 °C 19.2 °C 1012.0 hPa NE 5.8 km/h 11.1 km/h 79% 0.0 mm
03:49 22.9 °C 19.1 °C 1012.0 hPa NE 6 km/h 11.3 km/h 79% 0.0 mm
03:54 22.9 °C 19 °C 1011.9 hPa NNE 6.5 km/h 11.3 km/h 79% 0.0 mm
03:59 22.7 °C 19 °C 1011.9 hPa NNE 6.5 km/h 9.7 km/h 79.5% 0.0 mm
04:04 22.7 °C 19 °C 1012.0 hPa NNE 6.5 km/h 9.7 km/h 80% 0.0 mm
04:09 22.7 °C 19 °C 1012.0 hPa North 5.5 km/h 6.4 km/h 80% 0.0 mm
04:14 22.7 °C 19.1 °C 1012.0 hPa NNO 3.2 km/h 5.8 km/h 80% 0.0 mm
04:19 22.7 °C 19.1 °C 1012.0 hPa North 2.9 km/h 7.4 km/h 80.4% 0.0 mm
04:24 22.7 °C 19.3 °C 1012.0 hPa NNO 2.2 km/h 8.4 km/h 81% 0.0 mm
04:29 22.7 °C 19.3 °C 1012.0 hPa NO 2.7 km/h 8 km/h 81% 0.0 mm
04:34 22.7 °C 19.3 °C 1012.1 hPa North 3.9 km/h 8 km/h 81% 0.0 mm
04:39 22.7 °C 19.3 °C 1012.1 hPa North 3.6 km/h 5.6 km/h 81% 0.0 mm
04:44 22.7 °C 19.3 °C 1012.1 hPa NNO 2.9 km/h 4.8 km/h 81% 0.0 mm
04:49 22.8 °C 19.4 °C 1012.3 hPa NNO 2 km/h 3.2 km/h 81% 0.0 mm
04:54 22.8 °C 19.4 °C 1012.3 hPa Calm   6.4 km/h 81% 0.0 mm
04:59 22.8 °C 19.4 °C 1012.3 hPa NO 0.8 km/h 8 km/h 81% 0.0 mm
05:04 22.8 °C 19.4 °C 1012.3 hPa NO 2.2 km/h 8 km/h 81% 0.0 mm
05:09 22.9 °C 19.4 °C 1012.2 hPa NO 2.4 km/h 8 km/h 81% 0.0 mm
05:14 22.9 °C 19.4 °C 1012.2 hPa NO 2.9 km/h 4.8 km/h 81% 0.0 mm
05:19 22.9 °C 19.4 °C 1012.2 hPa NO 2.1 km/h 3.7 km/h 81% 0.0 mm
05:24 22.8 °C 19.4 °C 1012.1 hPa Calm   5.6 km/h 81% 0.0 mm
05:29 22.8 °C 19.4 °C 1012.1 hPa NO 1 km/h 5.6 km/h 81.1% 0.0 mm
05:34 22.8 °C 19.6 °C 1012.1 hPa NO 3.2 km/h 5.8 km/h 82% 0.0 mm
05:39 22.8 °C 19.5 °C 1012.0 hPa Oeste 3.2 km/h 7.4 km/h 82% 0.0 mm
05:44 22.7 °C 19.5 °C 1012.0 hPa Oeste 3.2 km/h 8 km/h 82% 0.0 mm
05:49 22.7 °C 19.4 °C 1012.0 hPa Oeste 3.1 km/h 4.8 km/h 82% 0.0 mm
05:54 22.7 °C 19.4 °C 1012.0 hPa ONO 2.9 km/h 4.8 km/h 82% 0.0 mm
05:59 22.7 °C 19.4 °C 1012.0 hPa ONO 1.9 km/h 3.7 km/h 82% 0.0 mm
06:04 22.7 °C 19.4 °C 1012.0 hPa Calm   3.9 km/h 82% 0.0 mm
06:09 22.7 °C 19.4 °C 1012.0 hPa Calm   3.7 km/h 82% 0.0 mm
06:14 22.7 °C 19.4 °C 1012.0 hPa Calm   4.7 km/h 82% 0.0 mm
06:19 22.7 °C 19.4 °C 1012.0 hPa Calm   4.8 km/h 82% 0.0 mm
06:24 22.7 °C 19.4 °C 1012.0 hPa Calm   4.7 km/h 82% 0.0 mm
06:29 22.7 °C 19.4 °C 1012.0 hPa ONO 0.7 km/h 4.8 km/h 82% 0.0 mm
06:34 22.7 °C 19.4 °C 1012.1 hPa ONO 2.2 km/h 4.8 km/h 82% 0.0 mm
06:39 22.7 °C 19.4 °C 1012.1 hPa ONO 1.6 km/h   82% 0.0 mm
06:44 22.7 °C 19.3 °C 1012.1 hPa Calm     81% 0.0 mm
06:49 22.7 °C 19.4 °C 1012.1 hPa Calm     81.4% 0.0 mm
06:54 22.7 °C 19.4 °C 1012.1 hPa Calm     82% 0.0 mm
06:59 22.7 °C 19.4 °C 1012.1 hPa Calm     82% 0.0 mm
07:04 22.7 °C 19.4 °C 1012.2 hPa Calm     82% 0.0 mm
07:09 22.7 °C 19.4 °C 1012.2 hPa Calm     82% 0.0 mm
07:14 22.7 °C 19.4 °C 1012.2 hPa Calm     81.7% 0.0 mm
07:19 22.7 °C 19.2 °C 1012.4 hPa ESE 0.7 km/h 7.4 km/h 80.6% 0.0 mm
07:24 22.7 °C 19 °C 1012.4 hPa SE 2.2 km/h 8 km/h 79.6% 0.0 mm
07:29 22.8 °C 18.9 °C 1012.4 hPa SSE 2.7 km/h 8 km/h 79% 0.0 mm
07:34 22.8 °C 18.9 °C 1012.5 hPa Sur 3.9 km/h 8 km/h 79% 0.0 mm
07:39 22.8 °C 19 °C 1012.5 hPa Sur 3.7 km/h 6.4 km/h 79% 0.0 mm
07:44 23 °C 19.1 °C 1012.5 hPa Sur 3.2 km/h 7.4 km/h 78.8% 0.0 mm
07:49 23.1 °C 19.1 °C 1012.6 hPa Sur 3.1 km/h 8 km/h 78% 0.0 mm
07:54 23.2 °C 19 °C 1012.6 hPa SSO 2.9 km/h 8.7 km/h 77.7% 0.0 mm
07:59 23.2 °C 19.1 °C 1012.6 hPa Sur 3.5 km/h 9.7 km/h 77.7% 0.0 mm
08:04 23.2 °C 19 °C 1012.6 hPa SSE 4.7 km/h 11.1 km/h 77.4% 0.0 mm
08:09 23.2 °C 19 °C 1012.6 hPa SSE 5.4 km/h 11.3 km/h 77.3% 0.0 mm
08:14 23.2 °C 19.1 °C 1012.6 hPa SSE 6.9 km/h 11.3 km/h 77.8% 0.0 mm
08:19 23.2 °C 19 °C 1012.6 hPa Sur 6.9 km/h 11.3 km/h 77.4% 0.0 mm
08:24 23.2 °C 19.2 °C 1012.6 hPa Sur 6.9 km/h 9.7 km/h 78% 0.0 mm
08:29 23.3 °C 19.2 °C 1012.6 hPa SE 6.6 km/h 9.7 km/h 78% 0.0 mm
08:34 23.4 °C 19.3 °C 1012.8 hPa SE 5.8 km/h 8 km/h 77.8% 0.0 mm
08:39 23.7 °C 19.3 °C 1012.8 hPa SSE 5.5 km/h 8.7 km/h 76.7% 0.0 mm
08:44 23.8 °C 19.4 °C 1012.8 hPa SSE 5 km/h 9.7 km/h 76% 0.0 mm
08:49 23.9 °C 19.4 °C 1012.8 hPa SE 5 km/h 9.7 km/h 76% 0.0 mm
08:54 23.9 °C 19.4 °C 1012.8 hPa Sur 5 km/h 9.7 km/h 76% 0.0 mm
08:59 24.1 °C 19.5 °C 1012.8 hPa SSO 4.9 km/h 9.3 km/h 75.5% 0.0 mm
09:04 24.2 °C 19.5 °C 1013.1 hPa Oeste 4.7 km/h 9.7 km/h 75% 0.0 mm
09:09 24.3 °C 19.6 °C 1013.1 hPa NO 4.4 km/h 8 km/h 75% 0.0 mm
09:14 24.4 °C 19.5 °C 1013.1 hPa NO 3.9 km/h 10 km/h 74.2% 0.0 mm
09:19 24.6 °C 19.6 °C 1013.3 hPa ONO 3.9 km/h 9.7 km/h 74% 0.0 mm
09:24 24.7 °C 19.6 °C 1013.3 hPa SSE 3.9 km/h 8 km/h 73.2% 0.0 mm
09:29 24.8 °C 19.6 °C 1013.3 hPa SE 3.9 km/h 8 km/h 73% 0.0 mm
09:34 25 °C 19.8 °C 1013.4 hPa Este 3.9 km/h 8 km/h 72.8% 0.0 mm
09:39 25.2 °C 19.8 °C 1013.4 hPa NNO 3.7 km/h 7.4 km/h 72.2% 0.0 mm
09:44 25.4 °C 19.8 °C 1013.4 hPa NNO 3.2 km/h 8 km/h 71.3% 0.0 mm
09:49 25.5 °C 19.8 °C 1013.5 hPa NO 3.4 km/h 8 km/h 70.7% 0.0 mm
09:54 25.7 °C 19.9 °C 1013.5 hPa NNO 3.9 km/h 6.4 km/h 70.5% 0.0 mm
09:59 26 °C 19.9 °C 1013.5 hPa NE 3.5 km/h 9.3 km/h 69.3% 0.0 mm
10:04 26.2 °C 20 °C 1013.5 hPa NE 2.9 km/h 9.7 km/h 68.6% 0.0 mm
10:09 26.4 °C 19.9 °C 1013.5 hPa ENE 3.2 km/h 8 km/h 67.7% 0.0 mm
10:14 26.6 °C 19.7 °C 1013.5 hPa ENE 3.9 km/h 9.3 km/h 66.2% 0.0 mm
10:19 26.7 °C 19.7 °C 1013.5 hPa NE 4.1 km/h 9.7 km/h 65.6% 0.0 mm
10:24 26.7 °C 19.5 °C 1013.4 hPa ENE 4.7 km/h 8 km/h 64.4% 0.0 mm
10:29 26.8 °C 19.3 °C 1013.4 hPa ENE 4.7 km/h 8.4 km/h 63.2% 0.0 mm
10:34 27 °C 19.3 °C 1013.4 hPa NE 4.7 km/h 8.4 km/h 63% 0.0 mm
10:39 27.3 °C 19.2 °C 1013.4 hPa NNE 4.4 km/h 8.7 km/h 61.6% 0.0 mm
10:44 27.3 °C 19.4 °C 1013.4 hPa NE 3.9 km/h 9.7 km/h 62.2% 0.0 mm
10:49 27.3 °C 19.6 °C 1013.4 hPa NNE 4.2 km/h 13 km/h 63% 0.0 mm
10:54 27.4 °C 19.5 °C 1013.3 hPa NNE 5 km/h 12.9 km/h 62% 0.0 mm
10:59 27.6 °C 19.4 °C 1013.3 hPa NNE 5.3 km/h 11.1 km/h 61.1% 0.0 mm
11:04 27.6 °C 19.4 °C 1013.4 hPa NE 5.8 km/h 11.3 km/h 61% 0.0 mm
11:09 27.6 °C 19.4 °C 1013.4 hPa ENE 5.8 km/h 10 km/h 60.9% 0.0 mm
11:14 27.6 °C 19.4 °C 1013.4 hPa NNE 5.8 km/h 13 km/h 60.8% 0.0 mm
11:19 27.5 °C 19.3 °C 1013.4 hPa ENE 6.4 km/h 14.8 km/h 60.8% 0.0 mm
11:24 27.4 °C 19.2 °C 1013.4 hPa NNE 7.6 km/h 14.5 km/h 60.9% 0.0 mm
11:29 27.4 °C 19 °C 1013.4 hPa NNE 7.9 km/h 16.7 km/h 60% 0.0 mm
11:34 27.4 °C 19 °C 1013.5 hPa NNE 8.7 km/h 16.1 km/h 60% 0.0 mm
11:39 27.7 °C 19.1 °C 1013.5 hPa NE 8.1 km/h 14.5 km/h 59.4% 0.0 mm
11:44 27.9 °C 18.9 °C 1013.5 hPa NE 6.9 km/h 14.5 km/h 58.1% 0.0 mm
11:49 28 °C 18.8 °C 1013.5 hPa ENE 7.1 km/h 17.2 km/h 57.4% 0.0 mm
11:54 28.2 °C 18.6 °C 1013.5 hPa NNE 7.6 km/h 17.7 km/h 56.1% 0.0 mm
11:59 28.4 °C 18.5 °C 1013.5 hPa NNE 7.6 km/h 16.7 km/h 55.3% 0.0 mm
12:04 28.4 °C 18.6 °C 1013.5 hPa North 7.6 km/h 16.1 km/h 55.1% 0.0 mm
12:09 28.6 °C 18.7 °C 1013.5 hPa NNE 7.8 km/h 19 km/h 55.1% 0.0 mm
12:14 28.7 °C 18.7 °C 1013.5 hPa NE 8.4 km/h 19.3 km/h 55% 0.0 mm
12:19 28.9 °C 18.7 °C 1013.5 hPa ENE 8.1 km/h 15.6 km/h 54.4% 0.0 mm
12:24 29.1 °C 18.5 °C 1013.5 hPa NNE 7.6 km/h 23.7 km/h 52.8% 0.0 mm
12:29 29.1 °C 18.4 °C 1013.5 hPa NNE 8.3 km/h 24.1 km/h 52.6% 0.0 mm
12:34 29.4 °C 18.4 °C 1013.5 hPa NE 10 km/h 18.5 km/h 51.8% 0.0 mm
12:39 29.6 °C 18.1 °C 1013.4 hPa NE 10 km/h 19.3 km/h 50.2% 0.0 mm
12:44 29.7 °C 18.1 °C 1013.4 hPa NNE 10 km/h 20.1 km/h 49.9% 0.0 mm
12:49 29.8 °C 18.1 °C 1013.4 hPa NE 9.8 km/h 25.9 km/h 49.5% 0.0 mm
12:54 29.8 °C 18.2 °C 1013.3 hPa NNE 9.5 km/h 25.7 km/h 49.6% 0.0 mm
12:59 30 °C 17.9 °C 1013.3 hPa NNE 9.7 km/h 19.3 km/h 48.4% 0.0 mm
13:04 30.2 °C 17.9 °C 1013.3 hPa NE 10 km/h 18.5 km/h 47.9% 0.0 mm
13:09 30.3 °C 18 °C 1013.2 hPa NE 10 km/h 22.5 km/h 47.7% 0.0 mm
13:14 30.2 °C 18 °C 1013.2 hPa NE 10 km/h 22.5 km/h 48.2% 0.0 mm
13:19 30.3 °C 18.1 °C 1013.2 hPa NE 10.6 km/h 22.2 km/h 48.2% 0.0 mm
13:24 30.5 °C 18.6 °C 1013.0 hPa NE 11.9 km/h 24.1 km/h 49% 0.0 mm
13:29 30.6 °C 18.7 °C 1013.0 hPa NE 12.5 km/h 24.1 km/h 49% 0.0 mm
13:34 30.4 °C 18.5 °C 1013.0 hPa NNE 13.7 km/h 20.9 km/h 48.8% 0.0 mm
13:39 30.7 °C 18.3 °C 1012.8 hPa Este 13.2 km/h 27.8 km/h 47.6% 0.0 mm
13:44 30.8 °C 18.5 °C 1012.8 hPa ENE 11.9 km/h 27.4 km/h 47.8% 0.0 mm
13:49 30.9 °C 18.7 °C 1012.9 hPa Este 12.3 km/h 22.5 km/h 48% 0.0 mm
13:54 31.1 °C 18.2 °C 1012.9 hPa ESE 13 km/h 20.4 km/h 46.1% 0.0 mm
13:59 31.2 °C 17.8 °C 1012.9 hPa SE 11.8 km/h 20.9 km/h 44.8% 0.0 mm
14:04 31.4 °C 17.6 °C 1012.9 hPa SE 9.5 km/h 25.9 km/h 43.9% 0.0 mm
14:09 31.3 °C 17.5 °C 1012.8 hPa ESE 10.8 km/h 25.7 km/h 43.9% 0.0 mm
14:14 31.2 °C 17.4 °C 1012.8 hPa SE 14 km/h 22.5 km/h 44% 0.0 mm
14:19 31.4 °C 17.4 °C 1012.8 hPa SE 12.8 km/h 22.5 km/h 43.2% 0.0 mm
14:24 31.5 °C 17.2 °C 1012.7 hPa ESE 10.3 km/h 23.3 km/h 42.3% 0.0 mm
14:29 31.4 °C 16.9 °C 1012.7 hPa ESE 10.8 km/h 24.1 km/h 41.9% 0.0 mm
14:34 31.5 °C 16.8 °C 1012.7 hPa ESE 11.9 km/h 21.7 km/h 41.3% 0.0 mm
14:39 31.7 °C 16.4 °C 1012.5 hPa ESE 12 km/h 22.5 km/h 39.9% 0.0 mm
14:44 31.3 °C 15.9 °C 1012.5 hPa Este 12.2 km/h 20.9 km/h 39.4% 0.0 mm
14:49 31.4 °C 16 °C 1012.5 hPa SE 11.6 km/h 24.5 km/h 39.4% 0.0 mm
14:54 31.4 °C 15.7 °C 1012.4 hPa SE 10.3 km/h 24.1 km/h 38.6% 0.0 mm
14:59 31.6 °C 15.6 °C 1012.4 hPa Este 10.2 km/h 22.5 km/h 38.3% 0.0 mm
15:04 31.8 °C 15.4 °C 1012.4 hPa Este 10 km/h 19.3 km/h 37.3% 0.0 mm
15:09 31.9 °C 15.3 °C 1012.2 hPa ENE 9.2 km/h 16.7 km/h 36.8% 0.0 mm
15:14 32.1 °C 15.4 °C 1012.2 hPa ESE 7.6 km/h 18.5 km/h 36.7% 0.0 mm
15:19 32.2 °C 15.1 °C 1012.2 hPa SSE 8.2 km/h 20.4 km/h 35.7% 0.0 mm
15:24 32.4 °C 14.7 °C 1012.1 hPa ESE 9.5 km/h 20.9 km/h 34.5% 0.0 mm
15:29 32.4 °C 13.8 °C 1012.1 hPa Este 9.6 km/h 19.8 km/h 32.4% 0.0 mm
15:34 32.3 °C 13 °C 1012.1 hPa ESE 10 km/h 20.9 km/h 30.9% 0.0 mm
15:39 32.5 °C 12.6 °C 1012.0 hPa SE 10.6 km/h 20.9 km/h 29.9% 0.0 mm
15:44 32.6 °C 12.3 °C 1012.0 hPa SE 12.2 km/h 22.2 km/h 29% 0.0 mm
15:49 32.8 °C 12 °C 1012.0 hPa ESE 12.1 km/h 24.1 km/h 28.2% 0.0 mm
15:54 33.1 °C 12 °C 1011.8 hPa ESE 11.9 km/h 24.1 km/h 27.7% 0.0 mm
15:59 33.2 °C 11.8 °C 1011.8 hPa SE 10.7 km/h 16.7 km/h 27.2% 0.0 mm
16:04 33.3 °C 11.9 °C 1011.8 hPa ESE 8.4 km/h 16.7 km/h 27.3% 0.0 mm
16:05 33.3 °C 12.3 °C 1011.7 hPa SE 8.3 km/h 16.1 km/h 28% 0.0 mm
17:19 33.5 °C 11.9 °C 1011.3 hPa ESE 11.5 km/h 18.5 km/h 27% 0.0 mm
17:24 33.4 °C 12.1 °C 1011.2 hPa Este 10.3 km/h 24.1 km/h 27.5% 0.0 mm
17:29 33.4 °C 12.5 °C 1011.2 hPa Este 10.1 km/h 24.1 km/h 28.2% 0.0 mm
17:34 33.3 °C 12.8 °C 1011.2 hPa ESE 9.5 km/h 22.5 km/h 28.9% 0.0 mm
17:39 33.2 °C 12.7 °C 1011.1 hPa ESE 10.7 km/h 22.5 km/h 28.9% 0.0 mm
17:44 33.1 °C 12.8 °C 1011.1 hPa ESE 14 km/h 24.1 km/h 29.1% 0.0 mm
17:49 32.8 °C 12.9 °C 1011.1 hPa ESE 13.7 km/h 24.1 km/h 29.8% 0.0 mm
17:54 32.8 °C 12.7 °C 1011.1 hPa Este 13 km/h 20.9 km/h 29.5% 0.0 mm
17:59 33 °C 12.9 °C 1011.1 hPa Este 12 km/h 19.3 km/h 29.5% 0.0 mm
18:04 33.2 °C 13.3 °C 1011.1 hPa ESE 9.5 km/h 20.4 km/h 30% 0.0 mm
18:09 33.1 °C 13.3 °C 1011.0 hPa ESE 10.1 km/h 20.9 km/h 30.2% 0.0 mm
18:14 33 °C 13.2 °C 1011.0 hPa Este 11.9 km/h 19.3 km/h 30.3% 0.0 mm
18:19 32.9 °C 13 °C 1011.0 hPa ESE 11.5 km/h 20.4 km/h 29.9% 0.0 mm
18:24 32.9 °C 13.1 °C 1010.9 hPa Este 10.3 km/h 20.9 km/h 30% 0.0 mm
18:29 32.9 °C 12.8 °C 1010.9 hPa Este 10.5 km/h 19 km/h 29.5% 0.0 mm
18:34 32.8 °C 13.1 °C 1010.9 hPa ENE 11.1 km/h 20.9 km/h 30.2% 0.0 mm
18:39 32.7 °C 13.1 °C 1010.9 hPa Este 11.3 km/h 24.5 km/h 30.4% 0.0 mm
18:44 32.6 °C 13 °C 1010.9 hPa NE 11.9 km/h 27.8 km/h 30.5% 0.0 mm
18:49 32.2 °C 12.9 °C 1010.9 hPa NE 13 km/h 27.8 km/h 30.9% 0.0 mm
18:54 32.3 °C 12.5 °C 1010.8 hPa NE 16.1 km/h 25.9 km/h 30% 0.0 mm
18:59 32.3 °C 12.5 °C 1010.8 hPa NE 16.1 km/h 25.9 km/h 30% 0.0 mm
19:04 32.2 °C 12.7 °C 1010.8 hPa NE 16.1 km/h 25.7 km/h 30.5% 0.0 mm
19:09 32.3 °C 12.9 °C 1010.8 hPa NE 15.8 km/h 24.5 km/h 30.9% 0.0 mm
19:14 32.2 °C 12.5 °C 1010.8 hPa NE 14.8 km/h 25.9 km/h 30.2% 0.0 mm
19:19 32.2 °C 12.4 °C 1011.0 hPa NE 15.1 km/h 27.8 km/h 29.9% 0.0 mm
19:24 32.1 °C 12.7 °C 1011.0 hPa NE 16.1 km/h 27.4 km/h 30.7% 0.0 mm
19:29 32.1 °C 12.9 °C 1011.0 hPa NE 15.5 km/h 24.5 km/h 31% 0.0 mm
19:34 32.1 °C 13.4 °C 1011.0 hPa NE 13.7 km/h 25.9 km/h 32.1% 0.0 mm
19:39 32 °C 13.5 °C 1010.9 hPa ENE 13.3 km/h 25.7 km/h 32.5% 0.0 mm
19:44 32.2 °C 13 °C 1010.9 hPa ENE 12.2 km/h 17.2 km/h 31.2% 0.0 mm
19:49 32.2 °C 12.7 °C 1011.1 hPa Este 11.5 km/h 18.5 km/h 30.6% 0.0 mm
19:54 32 °C 12.6 °C 1011.1 hPa Este 9.5 km/h 22.2 km/h 30.8% 0.0 mm
19:59 31.8 °C 12.6 °C 1011.1 hPa Este 10.2 km/h 22.5 km/h 31% 0.0 mm
20:04 31.8 °C 12.9 °C 1011.1 hPa Este 11.9 km/h 17.7 km/h 31.8% 0.0 mm
20:09 31.7 °C 13.3 °C 1011.1 hPa ESE 11.5 km/h 18.5 km/h 32.8% 0.0 mm
20:14 31.5 °C 13.3 °C 1011.1 hPa ESE 10.3 km/h 20.4 km/h 33% 0.0 mm
20:19 31.3 °C 13.5 °C 1011.4 hPa Este 10.2 km/h 20.9 km/h 33.9% 0.0 mm
20:24 31.2 °C 14.6 °C 1011.4 hPa ENE 10 km/h 14.5 km/h 36.7% 0.0 mm
20:29 30.9 °C 14.9 °C 1011.4 hPa ENE 9.5 km/h 11.3 km/h 37.8% 0.0 mm
20:34 30.8 °C 15 °C 1011.5 hPa ENE 7.6 km/h 18.5 km/h 38.3% 0.0 mm
20:39 30.5 °C 14.9 °C 1011.5 hPa ENE 8 km/h 19.3 km/h 39% 0.0 mm
20:44 30.3 °C 14.9 °C 1011.5 hPa ENE 9.5 km/h 16.1 km/h 39.4% 0.0 mm
20:49 30.1 °C 15.2 °C 1011.7 hPa ENE 9.2 km/h 15.6 km/h 40.5% 0.0 mm
20:54 29.8 °C 15.2 °C 1011.7 hPa ENE 8.4 km/h 17.2 km/h 41% 0.0 mm
20:59 29.7 °C 15.1 °C 1011.7 hPa ENE 7.9 km/h 17.7 km/h 41% 0.0 mm
21:04 29.6 °C 15.1 °C 1011.9 hPa NE 6.9 km/h 14.8 km/h 41.6% 0.0 mm
21:09 29.3 °C 14.7 °C 1011.9 hPa ENE 7.3 km/h 18 km/h 41% 0.0 mm
21:14 29.2 °C 14.7 °C 1011.9 hPa Este 8.4 km/h 19.3 km/h 41.2% 0.0 mm
21:19 29.1 °C 14.5 °C 1012.2 hPa ESE 8.1 km/h 11.9 km/h 41% 0.0 mm
21:24 28.8 °C 14.4 °C 1012.2 hPa ESE 7.6 km/h 14.8 km/h 41.3% 0.0 mm
21:29 28.8 °C 14.2 °C 1012.2 hPa ESE 7.4 km/h 14.5 km/h 41% 0.0 mm
21:34 28.7 °C 14.4 °C 1012.2 hPa ESE 6.9 km/h 13 km/h 41.6% 0.0 mm
21:39 28.5 °C 14.9 °C 1012.2 hPa Este 7.1 km/h 14 km/h 43.6% 0.0 mm
21:44 28.3 °C 15.3 °C 1012.2 hPa ENE 7.6 km/h 14.8 km/h 45.2% 0.0 mm
21:49 28.2 °C 15.7 °C 1012.4 hPa Este 7.6 km/h 14.8 km/h 46.9% 0.0 mm
21:54 27.9 °C 16.1 °C 1012.4 hPa Este 7.6 km/h 14.5 km/h 48.6% 0.0 mm
21:59 27.7 °C 16.3 °C 1012.4 hPa ENE 7.4 km/h 14.5 km/h 49.8% 0.0 mm
22:04 27.6 °C 16.5 °C 1012.6 hPa ENE 6.9 km/h 11.3 km/h 50.7% 0.0 mm
22:09 27.4 °C 16.9 °C 1012.6 hPa Este 7.1 km/h 16.7 km/h 52.7% 0.0 mm
22:14 27.3 °C 17.4 °C 1012.6 hPa Este 7.6 km/h 16.7 km/h 54.9% 0.0 mm
22:19 27.1 °C 17.7 °C 1012.7 hPa Este 7.9 km/h 16.4 km/h 56.4% 0.0 mm
22:24 26.9 °C 17.6 °C 1012.7 hPa ENE 8.7 km/h 18.5 km/h 56.8% 0.0 mm
22:29 26.8 °C 17.3 °C 1012.7 hPa NE 8.7 km/h 19.3 km/h 56.1% 0.0 mm
22:34 26.7 °C 17.2 °C 1012.9 hPa NE 8.7 km/h 14.5 km/h 56.1% 0.0 mm
22:39 26.7 °C 17.6 °C 1012.9 hPa NE 8.4 km/h 12.9 km/h 57.3% 0.0 mm
22:44 26.5 °C 17.6 °C 1012.9 hPa NE 7.6 km/h 11.9 km/h 58.3% 0.0 mm
22:49 26.3 °C 17.7 °C 1013.1 hPa NE 7.4 km/h 11.9 km/h 59% 0.0 mm
22:54 26.2 °C 17.9 °C 1013.1 hPa NE 6.9 km/h 13.7 km/h 60.1% 0.0 mm
22:59 26.1 °C 18.2 °C 1013.1 hPa NE 7.4 km/h 14.8 km/h 61.6% 0.0 mm
23:04 25.9 °C 18.3 °C 1013.2 hPa NE 8.4 km/h 15.6 km/h 62.9% 0.0 mm
23:09 25.7 °C 18.4 °C 1013.2 hPa NE 8.5 km/h 16.1 km/h 64% 0.0 mm
23:14 25.7 °C 18.5 °C 1013.2 hPa NE 8.7 km/h 14.5 km/h 64.7% 0.0 mm
23:19 25.6 °C 18.6 °C 1013.4 hPa NE 8.6 km/h 14.5 km/h 65.1% 0.0 mm
23:24 25.4 °C 18.7 °C 1013.4 hPa NE 8.4 km/h 16.7 km/h 66.3% 0.0 mm
23:29 25.3 °C 18.8 °C 1013.4 hPa NE 8.7 km/h 16.1 km/h 67.3% 0.0 mm
23:34 25.2 °C 19 °C 1013.4 hPa NE 9.5 km/h 14.5 km/h 68.5% 0.0 mm
23:39 25.2 °C 19.2 °C 1013.4 hPa NE 9.5 km/h 16.7 km/h 69.5% 0.0 mm
23:44 25 °C 19.3 °C 1013.4 hPa NE 9.5 km/h 19 km/h 70.5% 0.0 mm
23:49 24.9 °C 19.3 °C 1013.4 hPa NE 10.2 km/h 19.3 km/h 71.1% 0.0 mm
23:54 24.9 °C 19.5 °C 1013.4 hPa NE 12.2 km/h 19.3 km/h 72% 0.0 mm
23:59 24.9 °C 19.5 °C 1013.4 hPa NE 11.7 km/h 19.3 km/h 72% 0.0 mm
Murcia-Puente Tocinos, España
Compliments of Weather Underground - 3.5 mb

La estación de MeteoMurcia.com, publica sus datos en los siguientes proyectos:

Weather Underground PWS IMURCIAP2 Meteoclimatic www.awekas.at

W3Counter
Web Analytics